createdAt,value
2023-04-23T00:02:37.660Z,17.15
2023-04-23T00:05:42.168Z,16.87
2023-04-23T00:08:44.905Z,19.45
2023-04-23T00:11:48.141Z,18.58
2023-04-23T00:14:50.828Z,20.62
2023-04-23T00:17:53.406Z,22.48
2023-04-23T00:20:55.795Z,19.48
2023-04-23T00:23:58.304Z,17.52
2023-04-23T00:27:01.012Z,15.13
2023-04-23T00:30:05.232Z,20.77
2023-04-23T00:33:07.547Z,18.87
2023-04-23T00:36:09.987Z,18.40
2023-04-23T00:39:12.384Z,25.35
2023-04-23T00:42:17.050Z,19.20
2023-04-23T00:45:20.277Z,18.52
2023-04-23T00:48:22.725Z,19.08
2023-04-23T00:51:25.138Z,21.17
2023-04-23T00:54:28.106Z,20.27
2023-04-23T00:57:30.553Z,20.17
2023-04-23T01:00:37.192Z,23.53
2023-04-23T01:03:41.579Z,19.15
2023-04-23T01:06:47.175Z,23.83
2023-04-23T01:09:52.135Z,20.92
2023-04-23T01:12:55.461Z,19.80
2023-04-23T01:15:57.712Z,15.50
2023-04-23T01:19:00.570Z,18.58
2023-04-23T01:22:03.323Z,17.15
2023-04-23T01:25:08.062Z,18.07
2023-04-23T01:28:10.706Z,20.58
2023-04-23T01:31:14.551Z,16.02
2023-04-23T01:34:18.688Z,15.85
2023-04-23T01:40:23.462Z,17.83
2023-04-23T01:43:26.321Z,19.45
2023-04-23T01:46:29.185Z,16.27
2023-04-23T01:49:31.960Z,16.20
2023-04-23T01:52:34.192Z,16.87
2023-04-23T01:55:41.165Z,17.27
2023-04-23T01:58:43.387Z,19.60
2023-04-23T02:01:47.350Z,18.00
2023-04-23T02:07:52.582Z,16.90
2023-04-23T02:10:55.197Z,17.58
2023-04-23T02:13:57.684Z,15.27
2023-04-23T02:16:59.913Z,19.83
2023-04-23T02:20:02.804Z,18.08
2023-04-23T02:23:06.805Z,16.40
2023-04-23T02:26:09.363Z,16.85
2023-04-23T02:29:11.689Z,18.65
2023-04-23T02:32:14.602Z,15.10
2023-04-23T02:35:17.076Z,19.75
2023-04-23T02:38:19.715Z,14.67
2023-04-23T02:41:22.631Z,17.92
2023-04-23T02:44:25.624Z,18.92
2023-04-23T02:47:28.047Z,18.30
2023-04-23T02:50:30.819Z,24.10
2023-04-23T02:53:33.504Z,18.60
2023-04-23T02:56:36.260Z,18.55
2023-04-23T02:59:38.485Z,20.37
2023-04-23T03:02:41.516Z,18.55
2023-04-23T03:05:44.341Z,17.03
2023-04-23T03:08:47.010Z,15.73
2023-04-23T03:11:49.464Z,17.90
2023-04-23T03:14:51.902Z,19.55
2023-04-23T03:17:54.752Z,21.07
2023-04-23T03:20:57.586Z,16.92
2023-04-23T03:23:59.769Z,20.37
2023-04-23T03:27:02.241Z,19.62
2023-04-23T03:30:05.254Z,17.95
2023-04-23T03:33:07.891Z,23.80
2023-04-23T03:36:10.290Z,19.77
2023-04-23T03:39:13.727Z,19.45
2023-04-23T03:45:19.896Z,18.58
2023-04-23T03:48:22.950Z,21.77
2023-04-23T03:51:25.713Z,17.13
2023-04-23T03:54:28.252Z,19.08
2023-04-23T04:00:34.720Z,16.98
2023-04-23T04:03:37.407Z,19.17
2023-04-23T04:06:40.341Z,23.30
2023-04-23T04:09:42.788Z,19.63
2023-04-23T04:12:47.658Z,17.92
2023-04-23T04:15:50.585Z,20.80
2023-04-23T04:18:55.116Z,17.90
2023-04-23T04:21:58.728Z,20.55
2023-04-23T04:25:01.043Z,17.50
2023-04-23T04:28:03.686Z,20.05
2023-04-23T04:31:06.851Z,16.50
2023-04-23T04:34:10.566Z,16.90
2023-04-23T04:37:12.968Z,20.65
2023-04-23T04:40:15.859Z,20.37
2023-04-23T04:43:18.493Z,19.12
2023-04-23T04:46:21.692Z,16.70
2023-04-23T04:49:23.970Z,18.33
2023-04-23T04:52:26.397Z,18.30
2023-04-23T04:55:28.561Z,17.98
2023-04-23T04:58:31.620Z,16.40
2023-04-23T05:01:34.134Z,17.67
2023-04-23T05:04:36.616Z,20.23
2023-04-23T05:07:38.794Z,19.55
2023-04-23T05:10:41.362Z,18.60
2023-04-23T05:13:47.385Z,18.05
2023-04-23T05:16:49.934Z,18.67
2023-04-23T05:19:52.339Z,18.83
2023-04-23T05:22:55.031Z,21.10
2023-04-23T05:25:58.736Z,17.10
2023-04-23T05:29:01.272Z,20.10
2023-04-23T05:32:03.620Z,21.15
2023-04-23T05:35:06.996Z,26.95
2023-04-23T05:38:10.102Z,17.52
2023-04-23T05:41:12.600Z,16.83
2023-04-23T05:44:14.816Z,16.17
2023-04-23T05:47:17.334Z,12.88
2023-04-23T05:50:20.719Z,12.95
2023-04-23T05:53:23.245Z,14.68
2023-04-23T05:56:25.769Z,17.23
2023-04-23T05:59:28.223Z,14.70
2023-04-23T06:02:30.772Z,12.75
2023-04-23T06:05:33.329Z,14.35
2023-04-23T06:08:35.485Z,13.93
2023-04-23T06:11:38.109Z,12.85
2023-04-23T06:14:40.443Z,13.33
2023-04-23T06:17:43.196Z,13.35
2023-04-23T06:20:45.605Z,14.85
2023-04-23T06:23:48.497Z,13.60
2023-04-23T06:26:50.948Z,15.85
2023-04-23T06:32:55.822Z,12.88
2023-04-23T06:35:58.269Z,15.15
2023-04-23T06:39:00.538Z,11.10
2023-04-23T06:42:03.130Z,11.63
2023-04-23T06:48:09.034Z,12.75
2023-04-23T06:51:11.360Z,11.52
2023-04-23T06:54:14.097Z,12.75
2023-04-23T06:57:16.283Z,13.52
2023-04-23T07:00:19.851Z,19.02
2023-04-23T07:03:22.298Z,13.27
2023-04-23T07:09:27.374Z,14.75
2023-04-23T07:12:29.802Z,14.52
2023-04-23T07:15:32.081Z,20.20
2023-04-23T07:18:34.649Z,15.27
2023-04-23T07:21:36.877Z,12.88
2023-04-23T07:24:39.821Z,14.70
2023-04-23T07:27:42.088Z,13.00
2023-04-23T07:30:44.632Z,13.35
2023-04-23T07:33:47.023Z,11.10
2023-04-23T07:36:49.508Z,12.77
2023-04-23T07:39:53.579Z,12.43
2023-04-23T07:42:58.854Z,12.30
2023-04-23T07:46:01.134Z,12.70
2023-04-23T07:49:03.713Z,13.20
2023-04-23T07:52:06.237Z,13.13
2023-04-23T07:55:09.778Z,10.77
2023-04-23T07:58:11.940Z,10.57
2023-04-23T08:01:14.508Z,10.40
2023-04-23T08:04:17.250Z,12.40
2023-04-23T08:07:19.806Z,13.38
2023-04-23T08:10:22.310Z,10.83
2023-04-23T08:13:24.803Z,12.32
2023-04-23T08:16:28.141Z,9.43
2023-04-23T08:19:33.534Z,11.00
2023-04-23T08:22:36.056Z,9.60
2023-04-23T08:25:38.219Z,11.52
2023-04-23T08:28:40.638Z,10.73
2023-04-23T08:31:42.835Z,9.45
2023-04-23T08:34:45.472Z,9.07
2023-04-23T08:37:47.725Z,10.00
2023-04-23T08:40:56.636Z,12.77
2023-04-23T08:44:12.169Z,10.55
2023-04-23T08:47:18.387Z,9.73
2023-04-23T08:50:20.858Z,9.77
2023-04-23T08:53:28.084Z,11.12
2023-04-23T08:56:31.455Z,8.20
2023-04-23T08:59:34.770Z,9.77
2023-04-23T09:02:40.149Z,10.93
2023-04-23T09:05:44.125Z,10.07
2023-04-23T09:08:46.668Z,8.38
2023-04-23T09:11:49.608Z,8.48
2023-04-23T09:14:51.960Z,8.65
2023-04-23T09:17:54.753Z,11.00
2023-04-23T09:21:01.843Z,10.27
2023-04-23T09:24:11.830Z,8.85
2023-04-23T09:27:24.139Z,9.75
2023-04-23T09:30:27.479Z,7.23
2023-04-23T09:33:31.050Z,9.13
2023-04-23T09:36:33.775Z,9.85
2023-04-23T09:39:36.090Z,11.50
2023-04-23T09:42:38.637Z,8.77
2023-04-23T09:45:50.521Z,10.80
2023-04-23T09:48:56.968Z,8.95
2023-04-23T09:52:07.163Z,8.40
2023-04-23T09:55:09.984Z,8.98
2023-04-23T09:58:15.100Z,8.80
2023-04-23T10:01:17.587Z,8.23
2023-04-23T10:04:22.425Z,9.63
2023-04-23T10:07:24.948Z,8.93
2023-04-23T10:10:27.921Z,8.20
2023-04-23T10:13:30.640Z,7.20
2023-04-23T10:16:46.122Z,9.15
2023-04-23T10:19:52.213Z,7.50
2023-04-23T10:22:57.485Z,8.85
2023-04-23T10:26:01.523Z,6.97
2023-04-23T10:29:09.401Z,7.20
2023-04-23T10:32:12.539Z,7.28
2023-04-23T10:35:15.091Z,8.07
2023-04-23T10:38:17.622Z,7.22
2023-04-23T10:41:24.584Z,9.00
2023-04-23T10:44:56.486Z,8.43
2023-04-23T10:47:59.163Z,6.87
2023-04-23T10:51:25.045Z,9.77
2023-04-23T10:54:29.424Z,9.35
2023-04-23T10:57:51.575Z,6.62
2023-04-23T11:00:54.313Z,6.57
2023-04-23T11:03:56.771Z,6.78
2023-04-23T11:07:10.288Z,7.22
2023-04-23T11:10:14.243Z,7.10
2023-04-23T11:13:27.998Z,7.60
2023-04-23T11:16:30.963Z,6.97
2023-04-23T11:19:37.965Z,7.47
2023-04-23T11:22:44.780Z,7.18
2023-04-23T11:25:47.664Z,7.28
2023-04-23T11:28:53.595Z,7.95
2023-04-23T11:35:05.039Z,7.28
2023-04-23T11:38:11.118Z,6.45
2023-04-23T11:41:13.866Z,8.10
2023-04-23T11:44:16.541Z,7.03
2023-04-23T11:47:19.143Z,7.00
2023-04-23T11:50:25.780Z,6.55
2023-04-23T11:53:28.157Z,7.18
2023-04-23T11:59:33.471Z,6.55
2023-04-23T12:02:36.030Z,6.25
2023-04-23T12:08:47.136Z,7.35
2023-04-23T12:11:52.722Z,7.32
2023-04-23T12:15:04.226Z,8.27
2023-04-23T12:18:10.997Z,8.80
2023-04-23T12:21:13.955Z,6.45
2023-04-23T12:24:18.976Z,7.78
2023-04-23T12:27:22.877Z,8.95
2023-04-23T12:30:29.072Z,8.52
2023-04-23T12:33:31.538Z,8.18
2023-04-23T12:39:37.823Z,7.03
2023-04-23T12:42:40.335Z,7.75
2023-04-23T12:45:42.511Z,7.90
2023-04-23T12:48:44.936Z,7.20
2023-04-23T12:51:47.159Z,7.83
2023-04-23T12:54:52.773Z,7.00
2023-04-23T12:57:55.018Z,7.35
2023-04-23T13:00:57.622Z,7.82
2023-04-23T13:04:00.004Z,7.85
2023-04-23T13:07:02.663Z,9.00
2023-04-23T13:10:05.733Z,7.28
2023-04-23T13:13:08.174Z,7.87
2023-04-23T13:16:11.713Z,9.45
2023-04-23T13:19:14.314Z,8.13
2023-04-23T13:22:16.512Z,8.97
2023-04-23T13:25:19.232Z,9.85
2023-04-23T13:28:21.397Z,7.40
2023-04-23T13:31:23.851Z,7.07
2023-04-23T13:34:26.155Z,8.10
2023-04-23T13:37:30.180Z,9.45
2023-04-23T13:40:32.710Z,7.22
2023-04-23T13:43:35.333Z,7.85
2023-04-23T13:46:37.659Z,8.40
2023-04-23T13:49:40.316Z,7.68
2023-04-23T13:52:42.672Z,6.97
2023-04-23T13:55:45.338Z,7.25
2023-04-23T13:58:48.884Z,7.05
2023-04-23T14:01:51.512Z,7.15
2023-04-23T14:04:54.153Z,7.25
2023-04-23T14:07:56.796Z,6.57
2023-04-23T14:10:59.334Z,9.88
2023-04-23T14:14:01.763Z,8.50
2023-04-23T14:17:04.370Z,7.05
2023-04-23T14:20:07.775Z,9.00
2023-04-23T14:23:16.438Z,7.40
2023-04-23T14:26:44.803Z,7.62
2023-04-23T14:29:56.268Z,7.50
2023-04-23T14:32:58.582Z,8.05
2023-04-23T14:36:01.245Z,8.10
2023-04-23T14:39:05.426Z,7.05
2023-04-23T14:42:08.004Z,8.07
2023-04-23T14:45:10.602Z,9.30
2023-04-23T14:48:13.035Z,8.00
2023-04-23T14:51:15.960Z,7.75
2023-04-23T14:57:21.205Z,7.03
2023-04-23T15:00:23.754Z,6.95
2023-04-23T15:03:27.665Z,6.85
2023-04-23T15:06:30.279Z,10.25
2023-04-23T15:09:32.510Z,10.48
2023-04-23T15:12:41.138Z,8.87
2023-04-23T15:15:51.323Z,8.50
2023-04-23T15:18:53.810Z,7.72
2023-04-23T15:21:56.024Z,7.47
2023-04-23T15:24:58.475Z,8.67
2023-04-23T15:28:01.582Z,8.82
2023-04-23T15:31:04.939Z,7.62
2023-04-23T15:34:08.910Z,9.00
2023-04-23T15:37:11.820Z,7.80
2023-04-23T15:40:14.041Z,8.23
2023-04-23T15:43:17.269Z,7.90
2023-04-23T15:46:19.503Z,8.55
2023-04-23T15:49:22.379Z,7.95
2023-04-23T15:52:24.776Z,8.85
2023-04-23T15:55:30.588Z,9.57
2023-04-23T15:58:32.751Z,9.18
2023-04-23T16:01:37.743Z,8.07
2023-04-23T16:04:40.780Z,10.02
2023-04-23T16:07:44.372Z,8.48
2023-04-23T16:10:47.064Z,8.27
2023-04-23T16:13:49.205Z,7.95
2023-04-23T16:16:51.739Z,7.50
2023-04-23T16:19:54.463Z,8.55
2023-04-23T16:22:57.181Z,8.23
2023-04-23T16:26:01.432Z,8.73
2023-04-23T16:29:20.953Z,8.98
2023-04-23T16:32:24.165Z,7.57
2023-04-23T16:35:27.009Z,7.67
2023-04-23T16:38:31.049Z,8.70
2023-04-23T16:41:33.794Z,8.50
2023-04-23T16:44:36.508Z,9.77
2023-04-23T16:47:39.053Z,9.88
2023-04-23T16:50:42.808Z,7.20
2023-04-23T16:53:45.449Z,8.45
2023-04-23T16:56:47.783Z,11.30
2023-04-23T16:59:51.515Z,9.30
2023-04-23T17:02:54.909Z,7.30
2023-04-23T17:06:08.973Z,8.57
2023-04-23T17:12:13.723Z,8.15
2023-04-23T17:15:15.917Z,8.48
2023-04-23T17:18:18.691Z,8.25
2023-04-23T17:21:21.043Z,8.90
2023-04-23T17:24:23.524Z,9.67
2023-04-23T17:27:25.708Z,8.75
2023-04-23T17:30:28.243Z,7.62
2023-04-23T17:33:30.872Z,8.18
2023-04-23T17:36:33.401Z,8.45
2023-04-23T17:39:35.625Z,8.73
2023-04-23T17:42:38.358Z,8.57
2023-04-23T17:45:40.802Z,9.18
2023-04-23T17:48:43.387Z,7.40
2023-04-23T17:51:46.114Z,8.38
2023-04-23T17:54:49.014Z,8.18
2023-04-23T17:57:51.588Z,12.65
2023-04-23T18:00:54.261Z,10.52
2023-04-23T18:03:56.928Z,11.43
2023-04-23T18:06:59.545Z,9.00
2023-04-23T18:10:03.158Z,10.00
2023-04-23T18:16:11.482Z,11.23
2023-04-23T18:19:13.790Z,9.73
2023-04-23T18:22:17.137Z,8.95
2023-04-23T18:25:19.522Z,10.32
2023-04-23T18:28:22.483Z,11.18
2023-04-23T18:31:24.912Z,9.65
2023-04-23T18:34:33.121Z,9.00
2023-04-23T18:37:52.710Z,9.05
2023-04-23T18:40:55.642Z,11.60
2023-04-23T18:43:59.914Z,10.80
2023-04-23T18:47:02.931Z,12.30
2023-04-23T18:50:09.720Z,11.10
2023-04-23T18:53:12.245Z,13.77
2023-04-23T18:56:15.029Z,11.52
2023-04-23T18:59:18.713Z,10.95
2023-04-23T19:02:34.513Z,12.25
2023-04-23T19:05:38.846Z,10.65
2023-04-23T19:08:42.455Z,12.07
2023-04-23T19:11:45.162Z,9.20
2023-04-23T19:14:47.391Z,11.25
2023-04-23T19:17:50.051Z,10.73
2023-04-23T19:20:52.750Z,9.95
2023-04-23T19:23:56.481Z,10.75
2023-04-23T19:26:58.589Z,11.43
2023-04-23T19:30:01.065Z,11.85
2023-04-23T19:33:04.148Z,8.25
2023-04-23T19:36:06.700Z,11.40
2023-04-23T19:39:10.363Z,8.65
2023-04-23T19:42:12.941Z,9.95
2023-04-23T19:45:17.639Z,9.35
2023-04-23T19:48:20.610Z,9.68
2023-04-23T19:51:27.841Z,11.80
2023-04-23T19:54:30.598Z,15.35
2023-04-23T19:57:32.894Z,11.25
2023-04-23T20:00:38.791Z,10.80
2023-04-23T20:03:42.980Z,10.15
2023-04-23T20:06:45.261Z,11.20
2023-04-23T20:09:47.859Z,12.55
2023-04-23T20:12:50.352Z,9.90
2023-04-23T20:15:53.672Z,13.95
2023-04-23T20:18:56.528Z,10.10
2023-04-23T20:21:59.093Z,12.15
2023-04-23T20:25:01.942Z,10.38
2023-04-23T20:28:05.086Z,9.73
2023-04-23T20:31:07.344Z,10.25
2023-04-23T20:34:10.973Z,13.65
2023-04-23T20:37:13.690Z,11.82
2023-04-23T20:40:16.228Z,12.10
2023-04-23T20:43:18.527Z,11.63
2023-04-23T20:46:21.947Z,14.27
2023-04-23T20:49:27.704Z,11.73
2023-04-23T20:52:30.261Z,11.55
2023-04-23T20:55:32.507Z,11.52
2023-04-23T20:58:34.973Z,10.60
2023-04-23T21:01:37.495Z,11.12
2023-04-23T21:04:40.167Z,9.87
2023-04-23T21:07:43.291Z,10.77
2023-04-23T21:10:45.960Z,10.80
2023-04-23T21:13:48.326Z,10.32
2023-04-23T21:16:50.806Z,9.15
2023-04-23T21:19:52.959Z,14.45
2023-04-23T21:22:55.482Z,12.63
2023-04-23T21:25:57.821Z,11.00
2023-04-23T21:29:00.441Z,9.80
2023-04-23T21:32:02.771Z,10.98
2023-04-23T21:35:05.900Z,10.38
2023-04-23T21:38:09.128Z,10.37
2023-04-23T21:41:11.942Z,12.10
2023-04-23T21:44:14.200Z,11.12
2023-04-23T21:47:16.736Z,11.38
2023-04-23T21:50:19.110Z,11.43
2023-04-23T21:53:22.545Z,17.52
2023-04-23T21:56:24.759Z,11.93
2023-04-23T21:59:27.290Z,12.20
2023-04-23T22:02:29.733Z,10.43
2023-04-23T22:05:32.558Z,10.73
2023-04-23T22:08:37.823Z,11.25
2023-04-23T22:11:44.232Z,13.07
2023-04-23T22:14:51.231Z,11.85
2023-04-23T22:17:54.252Z,13.18
2023-04-23T22:20:56.563Z,9.90
2023-04-23T22:23:59.015Z,12.32
2023-04-23T22:27:01.879Z,11.35
2023-04-23T22:30:06.649Z,10.18
2023-04-23T22:33:08.888Z,13.27
2023-04-23T22:36:11.573Z,13.55
2023-04-23T22:39:13.885Z,12.25
2023-04-23T22:42:16.480Z,11.95
2023-04-23T22:45:18.817Z,12.25
2023-04-23T22:48:21.371Z,11.82
2023-04-23T22:51:23.592Z,11.88
2023-04-23T22:54:26.123Z,13.25
2023-04-23T22:57:28.505Z,10.32
2023-04-23T23:00:31.107Z,10.77
2023-04-23T23:03:33.305Z,12.77
2023-04-23T23:06:35.848Z,12.93
2023-04-23T23:09:37.991Z,10.75
2023-04-23T23:12:40.620Z,10.95
2023-04-23T23:15:42.826Z,12.30
2023-04-23T23:18:45.378Z,10.13
2023-04-23T23:21:47.663Z,10.90
2023-04-23T23:24:50.237Z,10.73
2023-04-23T23:27:52.822Z,11.02
2023-04-23T23:30:55.537Z,11.35
2023-04-23T23:33:58.143Z,11.10
2023-04-23T23:37:00.696Z,10.53
2023-04-23T23:40:05.509Z,12.00
2023-04-23T23:43:08.170Z,14.65
2023-04-23T23:46:10.554Z,11.68
2023-04-23T23:49:14.303Z,12.03
2023-04-23T23:52:16.460Z,11.23
2023-04-23T23:55:18.971Z,11.40
2023-04-23T23:58:21.728Z,11.40
